createdAt,value
2018-06-16T00:00:38.508Z,0.00
2018-06-16T00:01:38.506Z,0.00
2018-06-16T00:02:38.505Z,0.00
2018-06-16T00:03:38.501Z,0.00
2018-06-16T00:04:38.500Z,0.00
2018-06-16T00:05:38.498Z,0.00
2018-06-16T00:06:38.498Z,0.00
2018-06-16T00:07:38.495Z,0.00
2018-06-16T00:08:38.495Z,0.00
2018-06-16T00:09:38.493Z,0.00
2018-06-16T00:10:38.493Z,0.00
2018-06-16T00:11:38.490Z,0.00
2018-06-16T00:12:38.489Z,0.00
2018-06-16T00:13:38.518Z,0.00
2018-06-16T00:14:38.486Z,0.00
2018-06-16T00:15:38.486Z,0.00
2018-06-16T00:16:38.485Z,0.00
2018-06-16T00:17:38.482Z,0.00
2018-06-16T00:18:38.481Z,0.00
2018-06-16T00:19:38.479Z,0.00
2018-06-16T00:20:38.478Z,0.00
2018-06-16T00:21:38.476Z,0.00
2018-06-16T00:22:38.477Z,0.00
2018-06-16T00:23:38.473Z,0.00
2018-06-16T00:24:38.473Z,0.00
2018-06-16T00:25:38.471Z,0.00
2018-06-16T00:26:38.473Z,0.00
2018-06-16T00:27:38.468Z,0.00
2018-06-16T00:28:38.467Z,0.00
2018-06-16T00:29:38.467Z,0.00
2018-06-16T00:30:38.466Z,0.00
2018-06-16T00:31:38.463Z,0.00
2018-06-16T00:32:38.460Z,0.00
2018-06-16T00:33:38.459Z,0.00
2018-06-16T00:34:38.458Z,0.00
2018-06-16T00:35:38.455Z,0.00
2018-06-16T00:36:38.455Z,0.00
2018-06-16T00:37:38.453Z,0.00
2018-06-16T00:38:38.454Z,0.00
2018-06-16T00:39:38.449Z,0.00
2018-06-16T00:40:38.450Z,0.00
2018-06-16T00:41:38.448Z,0.00
2018-06-16T00:42:38.446Z,0.00
2018-06-16T00:43:38.447Z,0.00
2018-06-16T00:44:38.443Z,0.00
2018-06-16T00:45:38.441Z,0.00
2018-06-16T00:46:38.441Z,0.00
2018-06-16T00:47:38.439Z,0.00
2018-06-16T00:48:38.436Z,0.00
2018-06-16T00:49:38.434Z,0.00
2018-06-16T00:50:38.435Z,0.00
2018-06-16T00:51:38.432Z,0.00
2018-06-16T00:52:38.429Z,0.00
2018-06-16T00:53:38.428Z,0.00
2018-06-16T00:54:38.427Z,0.00
2018-06-16T00:55:38.424Z,0.00
2018-06-16T00:56:38.423Z,0.00
2018-06-16T00:57:38.422Z,0.00
2018-06-16T00:58:38.422Z,0.00
2018-06-16T00:59:38.419Z,0.00
2018-06-16T01:00:38.417Z,0.00
2018-06-16T01:01:38.415Z,0.00
2018-06-16T01:02:38.414Z,0.00
2018-06-16T01:03:38.412Z,0.00
2018-06-16T01:04:38.410Z,0.00
2018-06-16T01:05:38.407Z,0.00
2018-06-16T01:06:38.407Z,0.00
2018-06-16T01:07:38.403Z,0.00
2018-06-16T01:08:38.402Z,0.00
2018-06-16T01:09:38.401Z,0.00
2018-06-16T01:10:38.403Z,0.00
2018-06-16T01:11:38.398Z,0.00
2018-06-16T01:12:38.394Z,0.00
2018-06-16T01:13:38.395Z,0.00
2018-06-16T01:14:38.392Z,0.00
2018-06-16T01:15:38.389Z,0.00
2018-06-16T01:16:38.389Z,0.00
2018-06-16T01:17:38.386Z,0.00
2018-06-16T01:18:38.385Z,0.00
2018-06-16T01:19:38.382Z,0.00
2018-06-16T01:20:38.382Z,0.00
2018-06-16T01:21:38.380Z,0.00
2018-06-16T01:22:38.377Z,0.00
2018-06-16T01:23:38.376Z,0.00
2018-06-16T01:24:38.373Z,0.00
2018-06-16T01:25:38.371Z,0.00
2018-06-16T01:26:38.370Z,0.00
2018-06-16T01:27:38.368Z,0.00
2018-06-16T01:28:38.366Z,0.00
2018-06-16T01:29:38.364Z,0.00
2018-06-16T01:30:38.362Z,0.00
2018-06-16T01:31:38.363Z,0.00
2018-06-16T01:32:38.358Z,0.00
2018-06-16T01:33:38.357Z,0.00
2018-06-16T01:34:38.355Z,0.00
2018-06-16T01:35:38.353Z,0.00
2018-06-16T01:36:38.353Z,0.00
2018-06-16T01:37:38.355Z,0.00
2018-06-16T01:38:38.349Z,0.00
2018-06-16T01:39:38.348Z,0.00
2018-06-16T01:40:38.345Z,0.00
2018-06-16T01:41:38.343Z,0.00
2018-06-16T01:42:38.342Z,0.00
2018-06-16T01:43:38.339Z,0.00
2018-06-16T01:44:38.337Z,0.00
2018-06-16T01:45:38.340Z,0.00
2018-06-16T01:46:38.333Z,0.00
2018-06-16T01:47:38.331Z,0.00
2018-06-16T01:48:38.330Z,0.00
2018-06-16T01:49:38.328Z,0.00
2018-06-16T01:50:38.326Z,0.00
2018-06-16T01:51:38.324Z,0.00
2018-06-16T01:52:38.324Z,0.00
2018-06-16T01:53:38.322Z,0.00
2018-06-16T01:54:38.320Z,0.00
2018-06-16T01:55:38.318Z,0.00
2018-06-16T01:56:38.315Z,0.00
2018-06-16T01:57:38.315Z,0.00
2018-06-16T01:58:38.312Z,0.00
2018-06-16T01:59:38.310Z,0.00
2018-06-16T02:00:38.308Z,0.00
2018-06-16T02:01:38.305Z,0.00
2018-06-16T02:02:38.304Z,0.00
2018-06-16T02:03:38.301Z,0.00
2018-06-16T02:04:38.299Z,0.00
2018-06-16T02:05:38.297Z,0.00
2018-06-16T02:06:38.296Z,0.00
2018-06-16T02:07:38.294Z,0.00
2018-06-16T02:08:38.292Z,0.00
2018-06-16T02:09:38.296Z,0.00
2018-06-16T02:10:38.289Z,0.00
2018-06-16T02:11:38.285Z,0.00
2018-06-16T02:12:38.287Z,0.00
2018-06-16T02:13:38.283Z,0.00
2018-06-16T02:14:38.281Z,0.00
2018-06-16T02:15:38.277Z,0.00
2018-06-16T02:16:38.277Z,0.00
2018-06-16T02:17:38.275Z,0.00
2018-06-16T02:18:38.276Z,0.00
2018-06-16T02:19:38.271Z,0.00
2018-06-16T02:20:38.269Z,0.00
2018-06-16T02:21:38.270Z,0.00
2018-06-16T02:22:38.264Z,0.00
2018-06-16T02:23:38.262Z,0.00
2018-06-16T02:24:38.259Z,0.00
2018-06-16T02:25:38.258Z,0.00
2018-06-16T02:26:38.255Z,0.00
2018-06-16T02:27:38.253Z,0.00
2018-06-16T02:28:38.252Z,0.00
2018-06-16T02:29:38.249Z,0.00
2018-06-16T02:30:38.248Z,0.00
2018-06-16T02:31:38.245Z,0.00
2018-06-16T02:32:38.244Z,0.00
2018-06-16T02:33:38.242Z,0.00
2018-06-16T02:34:38.247Z,0.00
2018-06-16T02:35:38.237Z,0.00
2018-06-16T02:36:38.235Z,0.00
2018-06-16T02:37:38.233Z,0.00
2018-06-16T02:38:38.233Z,0.00
2018-06-16T02:39:38.229Z,0.00
2018-06-16T02:40:38.240Z,0.00
2018-06-16T02:41:38.229Z,0.00
2018-06-16T02:42:38.222Z,0.00
2018-06-16T02:43:38.219Z,0.00
2018-06-16T02:44:38.218Z,0.00
2018-06-16T02:45:38.216Z,0.00
2018-06-16T02:46:38.214Z,0.00
2018-06-16T02:47:38.212Z,0.00
2018-06-16T02:48:38.211Z,0.00
2018-06-16T02:49:38.209Z,0.00
2018-06-16T02:50:38.215Z,0.00
2018-06-16T02:51:38.252Z,0.00
2018-06-16T02:52:38.202Z,0.00
2018-06-16T02:53:38.205Z,0.00
2018-06-16T02:54:38.199Z,0.00
2018-06-16T02:55:38.198Z,0.00
2018-06-16T02:56:38.192Z,0.00
2018-06-16T02:57:38.190Z,0.00
2018-06-16T02:58:38.184Z,0.00
2018-06-16T02:59:38.181Z,0.00
2018-06-16T03:00:38.179Z,0.00
2018-06-16T03:01:38.178Z,0.00
2018-06-16T03:02:38.180Z,0.00
2018-06-16T03:03:38.178Z,0.00
2018-06-16T03:04:38.176Z,0.00
2018-06-16T03:05:38.175Z,0.00
2018-06-16T03:06:38.167Z,0.00
2018-06-16T03:07:38.164Z,0.00
2018-06-16T03:08:38.167Z,0.00
2018-06-16T03:09:38.176Z,0.00
2018-06-16T03:10:38.159Z,0.00
2018-06-16T03:11:38.161Z,5.63
2018-06-16T03:12:38.154Z,5.63
2018-06-16T03:13:38.152Z,5.63
2018-06-16T03:14:38.157Z,5.63
2018-06-16T03:15:38.152Z,5.63
2018-06-16T03:16:38.151Z,5.63
2018-06-16T03:17:38.149Z,5.63
2018-06-16T03:18:38.142Z,5.63
2018-06-16T03:19:38.142Z,5.63
2018-06-16T03:20:38.137Z,5.63
2018-06-16T03:21:38.136Z,5.63
2018-06-16T03:22:38.137Z,11.25
2018-06-16T03:23:38.201Z,11.25
2018-06-16T03:24:38.128Z,11.25
2018-06-16T03:25:38.126Z,11.25
2018-06-16T03:26:38.129Z,11.25
2018-06-16T03:27:38.126Z,16.88
2018-06-16T03:28:38.125Z,16.88
2018-06-16T03:29:38.123Z,16.88
2018-06-16T03:30:38.116Z,16.88
2018-06-16T03:31:38.113Z,16.88
2018-06-16T03:32:38.111Z,22.50
2018-06-16T03:33:38.109Z,22.50
2018-06-16T03:34:38.114Z,22.50
2018-06-16T03:35:38.112Z,22.50
2018-06-16T03:36:38.108Z,28.13
2018-06-16T03:37:38.105Z,28.13
2018-06-16T03:38:38.098Z,28.13
2018-06-16T03:39:38.096Z,28.13
2018-06-16T03:40:38.098Z,33.75
2018-06-16T03:41:38.097Z,33.75
2018-06-16T03:42:38.090Z,33.75
2018-06-16T03:43:38.088Z,33.75
2018-06-16T03:44:38.086Z,39.38
2018-06-16T03:45:38.086Z,39.38
2018-06-16T03:46:38.088Z,39.38
2018-06-16T03:47:38.084Z,45.00
2018-06-16T03:48:38.085Z,45.00
2018-06-16T03:49:38.081Z,45.00
2018-06-16T03:50:38.075Z,45.00
2018-06-16T03:51:38.071Z,45.00
2018-06-16T03:52:38.069Z,50.63
2018-06-16T03:53:38.067Z,50.63
2018-06-16T03:54:38.070Z,50.63
2018-06-16T03:55:38.067Z,50.63
2018-06-16T03:56:38.063Z,56.25
2018-06-16T03:57:38.111Z,56.25
2018-06-16T03:58:38.062Z,61.88
2018-06-16T03:59:38.060Z,61.88
2018-06-16T04:00:38.059Z,67.50
2018-06-16T04:01:38.057Z,73.13
2018-06-16T04:02:38.051Z,73.13
2018-06-16T04:03:38.047Z,78.75
2018-06-16T04:04:38.046Z,78.75
2018-06-16T04:05:38.044Z,78.75
2018-06-16T04:06:38.048Z,78.75
2018-06-16T04:07:38.046Z,84.38
2018-06-16T04:08:38.043Z,90.00
2018-06-16T04:09:38.042Z,90.00
2018-06-16T04:10:38.035Z,95.63
2018-06-16T04:11:38.034Z,95.63
2018-06-16T04:12:38.037Z,101.25
2018-06-16T04:13:38.033Z,106.88
2018-06-16T04:14:38.028Z,106.88
2018-06-16T04:15:38.025Z,112.50
2018-06-16T04:16:38.024Z,112.50
2018-06-16T04:17:38.022Z,118.13
2018-06-16T04:18:38.026Z,118.13
2018-06-16T04:19:38.024Z,118.13
2018-06-16T04:20:38.022Z,123.75
2018-06-16T04:21:38.020Z,123.75
2018-06-16T04:22:38.014Z,129.38
2018-06-16T04:23:38.012Z,129.38
2018-06-16T04:24:38.010Z,129.38
2018-06-16T04:25:38.009Z,135.00
2018-06-16T04:26:38.017Z,135.00
2018-06-16T04:27:38.012Z,140.63
2018-06-16T04:28:38.005Z,146.25
2018-06-16T04:29:38.003Z,146.25
2018-06-16T04:30:38.007Z,146.25
2018-06-16T04:31:38.009Z,146.25
2018-06-16T04:32:38.005Z,146.25
2018-06-16T04:33:38.004Z,146.25
2018-06-16T04:34:37.997Z,157.50
2018-06-16T04:35:37.995Z,157.50
2018-06-16T04:36:37.993Z,168.75
2018-06-16T04:37:37.993Z,163.13
2018-06-16T04:38:37.998Z,163.13
2018-06-16T04:39:37.995Z,168.75
2018-06-16T04:40:37.994Z,168.75
2018-06-16T04:41:37.996Z,163.13
2018-06-16T04:42:37.987Z,163.13
2018-06-16T04:43:37.986Z,163.13
2018-06-16T04:44:37.990Z,163.13
2018-06-16T04:45:38.076Z,157.50
2018-06-16T04:46:37.984Z,163.13
2018-06-16T04:47:37.982Z,157.50
2018-06-16T04:48:37.982Z,157.50
2018-06-16T04:49:37.985Z,157.50
2018-06-16T04:50:37.984Z,157.50
2018-06-16T04:51:37.983Z,157.50
2018-06-16T04:52:37.985Z,163.13
2018-06-16T04:53:37.984Z,163.13
2018-06-16T04:54:37.984Z,168.75
2018-06-16T04:55:37.975Z,168.75
2018-06-16T04:56:37.975Z,174.38
2018-06-16T04:57:37.974Z,180.00
2018-06-16T04:58:37.979Z,185.63
2018-06-16T04:59:37.979Z,191.25
2018-06-16T05:00:37.971Z,191.25
2018-06-16T05:01:37.971Z,191.25
2018-06-16T05:02:37.975Z,191.25
2018-06-16T05:03:37.973Z,191.25
2018-06-16T05:04:37.974Z,191.25
2018-06-16T05:05:37.973Z,196.88
2018-06-16T05:06:37.970Z,202.50
2018-06-16T05:07:37.967Z,208.13
2018-06-16T05:08:38.015Z,213.75
2018-06-16T05:09:37.967Z,225.00
2018-06-16T05:10:37.971Z,236.25
2018-06-16T05:11:37.969Z,247.50
2018-06-16T05:12:37.968Z,258.75
2018-06-16T05:13:37.967Z,275.63
2018-06-16T05:14:37.963Z,298.13
2018-06-16T05:15:37.962Z,315.00
2018-06-16T05:16:37.966Z,326.25
2018-06-16T05:17:37.966Z,360.00
2018-06-16T05:18:37.961Z,405.00
2018-06-16T05:19:37.962Z,427.50
2018-06-16T05:20:37.960Z,399.38
2018-06-16T05:21:37.960Z,427.50
2018-06-16T05:22:37.964Z,450.00
2018-06-16T05:23:37.964Z,489.38
2018-06-16T05:24:37.963Z,528.75
2018-06-16T05:25:37.966Z,523.13
2018-06-16T05:26:37.960Z,551.25
2018-06-16T05:27:37.960Z,568.13
2018-06-16T05:28:37.960Z,495.00
2018-06-16T05:29:37.962Z,483.75
2018-06-16T05:30:37.965Z,489.38
2018-06-16T05:31:37.966Z,562.50
2018-06-16T05:32:37.962Z,545.63
2018-06-16T05:33:37.963Z,607.50
2018-06-16T05:34:37.968Z,618.75
2018-06-16T05:35:37.970Z,517.50
2018-06-16T05:36:37.970Z,506.25
2018-06-16T05:37:37.971Z,551.25
2018-06-16T05:38:37.968Z,562.50
2018-06-16T05:39:37.969Z,500.63
2018-06-16T05:40:37.972Z,534.38
2018-06-16T05:41:37.972Z,568.13
2018-06-16T05:42:37.979Z,658.13
2018-06-16T05:43:37.978Z,635.63
2018-06-16T05:44:37.980Z,663.75
2018-06-16T05:45:37.983Z,663.75
2018-06-16T05:46:37.981Z,708.75
2018-06-16T05:47:37.981Z,725.63
2018-06-16T05:48:37.987Z,607.50
2018-06-16T05:49:37.990Z,658.13
2018-06-16T05:50:37.987Z,680.63
2018-06-16T05:51:37.990Z,753.75
2018-06-16T05:52:37.991Z,753.75
2018-06-16T05:53:37.993Z,596.25
2018-06-16T05:54:38.000Z,613.13
2018-06-16T05:55:38.002Z,613.13
2018-06-16T05:56:38.006Z,579.38
2018-06-16T05:57:38.008Z,556.88
2018-06-16T05:58:38.006Z,545.63
2018-06-16T05:59:38.012Z,528.75
2018-06-16T06:00:38.011Z,528.75
2018-06-16T06:01:38.014Z,540.00
2018-06-16T06:02:38.022Z,562.50
2018-06-16T06:03:38.024Z,748.13
2018-06-16T06:04:38.022Z,585.00
2018-06-16T06:05:38.024Z,843.75
2018-06-16T06:06:38.032Z,630.00
2018-06-16T06:07:38.033Z,736.88
2018-06-16T06:08:38.036Z,798.75
2018-06-16T06:09:38.040Z,776.25
2018-06-16T06:10:38.156Z,742.50
2018-06-16T06:11:38.040Z,601.88
2018-06-16T06:12:38.043Z,596.25
2018-06-16T06:13:38.048Z,871.88
2018-06-16T06:14:38.054Z,855.00
2018-06-16T06:15:38.057Z,877.50
2018-06-16T06:16:38.060Z,810.00
2018-06-16T06:17:38.064Z,843.75
2018-06-16T06:18:38.061Z,765.00
2018-06-16T06:19:38.065Z,765.00
2018-06-16T06:20:38.073Z,540.00
2018-06-16T06:21:38.075Z,483.75
2018-06-16T06:22:38.075Z,455.63
2018-06-16T06:23:38.077Z,466.88
2018-06-16T06:24:38.081Z,506.25
2018-06-16T06:25:38.090Z,821.25
2018-06-16T06:26:38.099Z,601.88
2018-06-16T06:27:38.096Z,601.88
2018-06-16T06:28:38.099Z,601.88
2018-06-16T06:29:38.103Z,630.00
2018-06-16T06:30:38.101Z,691.88
2018-06-16T06:31:38.104Z,950.63
2018-06-16T06:32:38.107Z,646.88
2018-06-16T06:33:38.111Z,618.75
2018-06-16T06:34:38.119Z,618.75
2018-06-16T06:35:38.122Z,646.88
2018-06-16T06:36:38.120Z,691.88
2018-06-16T06:37:38.125Z,748.13
2018-06-16T06:38:38.132Z,708.75
2018-06-16T06:39:38.138Z,821.25
2018-06-16T06:40:38.139Z,725.63
2018-06-16T06:41:38.145Z,714.38
2018-06-16T06:42:38.140Z,826.88
2018-06-16T06:43:38.143Z,961.88
2018-06-16T06:44:38.147Z,1046.25
2018-06-16T06:45:38.150Z,1085.63
2018-06-16T06:46:38.160Z,1074.38
2018-06-16T06:47:38.161Z,1125.00
2018-06-16T06:48:38.164Z,1175.63
2018-06-16T06:49:38.169Z,1282.50
2018-06-16T06:50:38.169Z,1260.00
2018-06-16T06:51:38.230Z,1310.63
2018-06-16T06:52:38.179Z,1282.50
2018-06-16T06:53:38.184Z,1451.25
2018-06-16T06:54:38.184Z,1276.88
2018-06-16T06:55:38.187Z,1305.00
2018-06-16T06:56:38.192Z,1305.00
2018-06-16T06:57:38.197Z,1231.88
2018-06-16T06:58:38.208Z,1271.25
2018-06-16T06:59:38.212Z,1254.38
2018-06-16T07:00:38.217Z,1226.25
2018-06-16T07:01:38.223Z,1254.38
2018-06-16T07:02:38.225Z,1321.88
2018-06-16T07:03:38.229Z,1316.25
2018-06-16T07:04:38.234Z,1153.13
2018-06-16T07:05:38.242Z,1102.50
2018-06-16T07:06:38.252Z,1231.88
2018-06-16T07:07:38.262Z,1389.38
2018-06-16T07:08:38.260Z,1350.00
2018-06-16T07:09:38.267Z,1440.00
2018-06-16T07:10:38.339Z,1321.88
2018-06-16T07:11:38.287Z,1445.63
2018-06-16T07:12:38.293Z,1456.88
2018-06-16T07:13:38.302Z,1575.00
2018-06-16T07:14:38.304Z,1490.63
2018-06-16T07:15:38.315Z,1693.13
2018-06-16T07:16:38.320Z,1777.50
2018-06-16T07:17:38.327Z,1794.38
2018-06-16T07:18:38.343Z,1923.75
2018-06-16T07:19:38.348Z,2092.50
2018-06-16T07:20:38.357Z,2070.00
2018-06-16T07:21:38.365Z,2688.75
2018-06-16T07:22:38.370Z,2880.00
2018-06-16T07:23:38.466Z,2390.63
2018-06-16T07:24:38.395Z,2356.88
2018-06-16T07:25:38.403Z,2278.13
2018-06-16T07:26:38.415Z,2131.88
2018-06-16T07:27:38.420Z,2053.13
2018-06-16T07:28:38.429Z,2261.25
2018-06-16T07:29:38.444Z,2649.38
2018-06-16T07:30:38.455Z,3026.25
2018-06-16T07:31:38.466Z,2739.38
2018-06-16T07:32:38.476Z,2677.50
2018-06-16T07:33:38.487Z,1755.00
2018-06-16T07:34:38.494Z,2356.88
2018-06-16T07:35:38.505Z,1642.50
2018-06-16T07:36:38.516Z,1558.13
2018-06-16T07:37:38.528Z,2019.38
2018-06-16T07:38:38.544Z,1305.00
2018-06-16T07:39:38.557Z,1164.38
2018-06-16T07:40:38.560Z,1423.13
2018-06-16T07:41:38.573Z,1130.63
2018-06-16T07:42:38.589Z,1136.25
2018-06-16T07:43:38.598Z,1198.13
2018-06-16T07:44:38.608Z,995.63
2018-06-16T07:45:38.624Z,1029.38
2018-06-16T07:46:38.626Z,911.25
2018-06-16T07:47:38.635Z,916.88
2018-06-16T07:48:38.645Z,928.13
2018-06-16T07:49:38.655Z,1192.50
2018-06-16T07:50:38.669Z,1175.63
2018-06-16T07:51:38.678Z,1153.13
2018-06-16T07:52:38.688Z,1220.63
2018-06-16T07:53:38.697Z,1361.25
2018-06-16T07:54:38.701Z,1884.38
2018-06-16T07:55:38.710Z,1496.25
2018-06-16T07:56:38.757Z,1659.38
2018-06-16T07:57:38.732Z,1710.00
2018-06-16T07:58:38.738Z,1794.38
2018-06-16T07:59:38.743Z,1895.63
2018-06-16T08:00:38.754Z,1895.63
2018-06-16T08:01:38.760Z,1878.75
2018-06-16T08:02:38.773Z,1912.50
2018-06-16T08:03:38.781Z,1704.38
2018-06-16T08:04:38.791Z,1631.25
2018-06-16T08:05:38.797Z,1524.38
2018-06-16T08:06:38.802Z,1513.13
2018-06-16T08:07:38.810Z,1518.75
2018-06-16T08:08:38.819Z,1383.75
2018-06-16T08:09:38.828Z,1321.88
2018-06-16T08:10:38.846Z,1338.75
2018-06-16T08:11:38.852Z,1344.38
2018-06-16T08:12:38.854Z,1192.50
2018-06-16T08:13:38.862Z,1108.13
2018-06-16T08:14:38.875Z,1102.50
2018-06-16T08:15:38.886Z,1260.00
2018-06-16T08:16:38.891Z,1428.75
2018-06-16T08:17:38.905Z,1276.88
2018-06-16T08:18:38.904Z,1029.38
2018-06-16T08:19:38.913Z,1023.75
2018-06-16T08:20:38.920Z,1091.25
2018-06-16T08:21:38.939Z,1119.38
2018-06-16T08:22:38.942Z,1186.88
2018-06-16T08:23:38.948Z,1260.00
2018-06-16T08:24:38.999Z,1361.25
2018-06-16T08:25:38.967Z,1597.50
2018-06-16T08:26:38.969Z,1642.50
2018-06-16T08:27:38.977Z,1530.00
2018-06-16T08:28:38.989Z,1485.00
2018-06-16T08:29:38.999Z,1361.25
2018-06-16T08:30:39.001Z,1518.75
2018-06-16T08:31:39.010Z,1597.50
2018-06-16T08:32:39.017Z,1698.75
2018-06-16T08:33:39.025Z,1445.63
2018-06-16T08:34:39.066Z,1417.50
2018-06-16T08:35:39.046Z,2025.00
2018-06-16T08:36:39.056Z,1951.88
2018-06-16T08:37:39.065Z,2205.00
2018-06-16T08:38:39.067Z,2306.25
2018-06-16T08:39:39.075Z,2176.88
2018-06-16T08:40:39.084Z,2182.50
2018-06-16T08:41:39.095Z,2221.88
2018-06-16T08:42:39.109Z,2013.75
2018-06-16T08:43:39.114Z,1839.38
2018-06-16T08:44:39.120Z,1681.88
2018-06-16T08:45:39.130Z,2205.00
2018-06-16T08:46:39.144Z,1642.50
2018-06-16T08:47:39.152Z,2188.13
2018-06-16T08:48:39.213Z,2013.75
2018-06-16T08:49:39.174Z,2739.38
2018-06-16T08:50:39.178Z,3015.00
2018-06-16T08:51:39.188Z,2581.88
2018-06-16T08:52:39.198Z,2964.38
2018-06-16T08:53:39.209Z,3403.13
2018-06-16T08:54:39.224Z,3436.88
2018-06-16T08:55:39.424Z,3605.63
2018-06-16T08:56:39.274Z,3510.00
2018-06-16T08:57:39.257Z,3386.25
2018-06-16T08:58:39.265Z,3498.75
2018-06-16T08:59:39.276Z,3380.63
2018-06-16T09:00:39.293Z,3166.88
2018-06-16T09:01:39.306Z,3256.88
2018-06-16T09:02:39.315Z,3060.00
2018-06-16T09:03:39.327Z,2857.50
2018-06-16T09:04:39.341Z,2750.63
2018-06-16T09:05:39.355Z,2171.25
2018-06-16T09:06:39.376Z,2109.38
2018-06-16T09:07:39.394Z,2115.00
2018-06-16T09:08:39.404Z,2306.25
2018-06-16T09:09:39.417Z,1715.63
2018-06-16T09:10:39.429Z,1580.63
2018-06-16T09:11:39.445Z,1648.13
2018-06-16T09:12:39.459Z,1535.63
2018-06-16T09:13:39.469Z,1631.25
2018-06-16T09:14:39.488Z,1518.75
2018-06-16T09:15:39.502Z,1507.50
2018-06-16T09:16:39.512Z,1434.38
2018-06-16T09:17:39.525Z,1473.75
2018-06-16T09:18:39.542Z,2171.25
2018-06-16T09:19:39.556Z,2413.13
2018-06-16T09:20:39.569Z,2739.38
2018-06-16T09:21:39.583Z,2452.50
2018-06-16T09:22:39.606Z,2390.63
2018-06-16T09:23:39.604Z,2452.50
2018-06-16T09:24:39.620Z,2255.63
2018-06-16T09:25:39.631Z,2250.00
2018-06-16T09:26:39.648Z,2019.38
2018-06-16T09:27:39.662Z,2300.63
2018-06-16T09:28:39.672Z,2626.88
2018-06-16T09:29:39.685Z,2092.50
2018-06-16T09:30:39.696Z,2520.00
2018-06-16T09:31:39.745Z,2615.63
2018-06-16T09:32:39.724Z,2064.38
2018-06-16T09:33:39.736Z,2722.50
2018-06-16T09:34:39.746Z,2621.25
2018-06-16T09:35:39.757Z,2362.50
2018-06-16T09:36:39.771Z,2525.63
2018-06-16T09:37:39.785Z,2300.63
2018-06-16T09:38:39.804Z,2295.00
2018-06-16T09:39:39.819Z,2385.00
2018-06-16T09:40:39.828Z,2716.88
2018-06-16T09:41:39.842Z,2621.25
2018-06-16T09:42:39.850Z,2520.00
2018-06-16T09:43:39.867Z,2660.63
2018-06-16T09:44:39.889Z,2750.63
2018-06-16T09:45:39.893Z,2688.75
2018-06-16T09:46:39.912Z,2784.38
2018-06-16T09:47:39.925Z,2823.75
2018-06-16T09:48:39.934Z,2542.50
2018-06-16T09:49:39.949Z,2778.75
2018-06-16T09:50:39.973Z,2655.00
2018-06-16T09:51:39.982Z,2739.38
2018-06-16T09:52:39.995Z,2840.63
2018-06-16T09:53:40.012Z,2896.88
2018-06-16T09:54:40.023Z,2896.88
2018-06-16T09:55:40.040Z,2986.88
2018-06-16T09:56:40.053Z,2958.75
2018-06-16T09:57:40.068Z,3060.00
2018-06-16T09:58:40.088Z,3076.88
2018-06-16T09:59:40.991Z,3121.88
2018-06-16T10:00:40.532Z,2514.38
2018-06-16T10:01:40.569Z,2486.25
2018-06-16T10:02:40.574Z,2542.50
2018-06-16T10:03:40.601Z,3352.50
2018-06-16T10:04:40.186Z,3037.50
2018-06-16T10:05:40.199Z,2604.38
2018-06-16T10:06:40.211Z,2593.13
2018-06-16T10:07:40.227Z,2458.13
2018-06-16T10:08:40.245Z,2565.00
2018-06-16T10:09:40.263Z,1833.75
2018-06-16T10:10:40.282Z,1552.50
2018-06-16T10:11:40.301Z,1485.00
2018-06-16T10:12:40.315Z,1383.75
2018-06-16T10:13:40.333Z,1423.13
2018-06-16T10:14:40.345Z,2548.13
2018-06-16T10:15:40.360Z,2576.25
2018-06-16T10:16:40.381Z,2148.75
2018-06-16T10:17:40.393Z,2902.50
2018-06-16T10:18:40.414Z,3330.00
2018-06-16T10:19:40.429Z,3453.75
2018-06-16T10:20:40.439Z,4117.50
2018-06-16T10:21:40.456Z,4033.13
2018-06-16T10:22:40.477Z,2463.75
2018-06-16T10:23:40.494Z,2947.50
2018-06-16T10:24:40.506Z,3251.25
2018-06-16T10:25:40.521Z,2986.88
2018-06-16T10:26:40.532Z,3060.00
2018-06-16T10:27:40.547Z,2536.88
2018-06-16T10:28:40.565Z,2430.00
2018-06-16T10:29:40.585Z,2176.88
2018-06-16T10:30:40.598Z,1912.50
2018-06-16T10:31:40.611Z,1710.00
2018-06-16T10:32:40.627Z,1923.75
2018-06-16T10:33:40.642Z,2064.38
2018-06-16T10:34:40.652Z,2598.75
2018-06-16T10:35:40.665Z,3521.25
2018-06-16T10:36:40.685Z,3431.25
2018-06-16T10:37:40.699Z,3268.13
2018-06-16T10:38:40.712Z,3150.00
2018-06-16T10:39:40.723Z,4269.38
2018-06-16T10:40:40.736Z,4533.75
2018-06-16T10:41:40.754Z,4415.63
2018-06-16T10:42:40.768Z,2716.88
2018-06-16T10:43:40.781Z,2750.63
2018-06-16T10:44:40.797Z,2171.25
2018-06-16T10:45:40.809Z,3150.00
2018-06-16T10:46:40.823Z,2756.25
2018-06-16T10:47:40.832Z,2638.13
2018-06-16T10:48:40.847Z,2784.38
2018-06-16T10:49:40.859Z,2593.13
2018-06-16T10:50:40.878Z,2525.63
2018-06-16T10:51:40.892Z,2300.63
2018-06-16T10:52:40.902Z,2407.50
2018-06-16T10:53:40.913Z,2497.50
2018-06-16T10:54:40.931Z,1755.00
2018-06-16T10:55:40.943Z,1485.00
2018-06-16T10:56:40.959Z,2148.75
2018-06-16T10:57:40.975Z,2064.38
2018-06-16T10:58:40.978Z,1861.88
2018-06-16T10:59:40.989Z,1636.88
2018-06-16T11:00:41.002Z,1490.63
2018-06-16T11:01:41.014Z,1710.00
2018-06-16T11:02:41.031Z,1766.25
2018-06-16T11:03:41.043Z,1181.25
2018-06-16T11:04:41.054Z,1203.75
2018-06-16T11:05:41.064Z,1102.50
2018-06-16T11:06:41.072Z,967.50
2018-06-16T11:07:41.082Z,1822.50
2018-06-16T11:08:41.097Z,1755.00
2018-06-16T11:09:41.108Z,1839.38
2018-06-16T11:10:41.115Z,2716.88
2018-06-16T11:11:41.126Z,3048.75
2018-06-16T11:12:41.135Z,2019.38
2018-06-16T11:13:41.146Z,4044.38
2018-06-16T11:14:41.212Z,3763.13
2018-06-16T11:15:41.170Z,3431.25
2018-06-16T11:16:41.183Z,3678.75
2018-06-16T11:17:41.191Z,3245.63
2018-06-16T11:18:41.201Z,1327.50
2018-06-16T11:19:41.207Z,1524.38
2018-06-16T11:20:41.218Z,3195.00
2018-06-16T11:21:41.227Z,2846.25
2018-06-16T11:22:41.244Z,1788.75
2018-06-16T11:23:41.252Z,1473.75
2018-06-16T11:24:41.258Z,1186.88
2018-06-16T11:25:41.268Z,961.88
2018-06-16T11:26:41.283Z,832.50
2018-06-16T11:27:41.291Z,933.75
2018-06-16T11:28:41.304Z,911.25
2018-06-16T11:29:41.313Z,849.38
2018-06-16T11:30:41.319Z,945.00
2018-06-16T11:31:41.327Z,1085.63
2018-06-16T11:32:41.337Z,1113.75
2018-06-16T11:33:41.347Z,1198.13
2018-06-16T11:34:41.361Z,1260.00
2018-06-16T11:35:41.369Z,1271.25
2018-06-16T11:36:41.378Z,1226.25
2018-06-16T11:37:41.387Z,1243.13
2018-06-16T11:38:41.391Z,1260.00
2018-06-16T11:39:41.399Z,1220.63
2018-06-16T11:40:41.413Z,1125.00
2018-06-16T11:41:41.421Z,984.38
2018-06-16T11:42:41.425Z,911.25
2018-06-16T11:43:41.436Z,1006.88
2018-06-16T11:44:41.441Z,1057.50
2018-06-16T11:45:41.451Z,961.88
2018-06-16T11:46:41.463Z,855.00
2018-06-16T11:47:41.471Z,916.88
2018-06-16T11:48:41.537Z,843.75
2018-06-16T11:49:41.487Z,843.75
2018-06-16T11:50:41.491Z,855.00
2018-06-16T11:51:41.497Z,832.50
2018-06-16T11:52:41.505Z,815.63
2018-06-16T11:53:41.513Z,731.25
2018-06-16T11:54:41.529Z,663.75
2018-06-16T11:55:41.533Z,562.50
2018-06-16T11:56:41.535Z,556.88
2018-06-16T11:57:41.611Z,500.63
2018-06-16T11:58:41.556Z,405.00
2018-06-16T11:59:41.562Z,315.00
2018-06-16T12:00:41.570Z,264.38
2018-06-16T12:01:41.577Z,225.00
2018-06-16T12:02:41.579Z,185.63
2018-06-16T12:03:41.585Z,157.50
2018-06-16T12:04:41.592Z,135.00
2018-06-16T12:05:41.599Z,118.13
2018-06-16T12:06:41.609Z,101.25
2018-06-16T12:07:41.616Z,90.00
2018-06-16T12:08:41.621Z,78.75
2018-06-16T12:09:41.630Z,78.75
2018-06-16T12:10:41.631Z,78.75
2018-06-16T12:11:41.636Z,78.75
2018-06-16T12:12:41.646Z,84.38
2018-06-16T12:13:41.653Z,90.00
2018-06-16T12:14:41.654Z,95.63
2018-06-16T12:15:41.659Z,95.63
2018-06-16T12:16:41.664Z,101.25
2018-06-16T12:17:41.670Z,101.25
2018-06-16T12:18:41.685Z,101.25
2018-06-16T12:19:41.685Z,101.25
2018-06-16T12:20:41.691Z,95.63
2018-06-16T12:21:41.695Z,101.25
2018-06-16T12:22:41.696Z,101.25
2018-06-16T12:23:41.703Z,106.88
2018-06-16T12:24:41.707Z,112.50
2018-06-16T12:25:41.711Z,123.75
2018-06-16T12:26:41.723Z,135.00
2018-06-16T12:27:41.729Z,151.88
2018-06-16T12:28:41.725Z,168.75
2018-06-16T12:29:41.746Z,196.88
2018-06-16T12:30:41.739Z,236.25
2018-06-16T12:31:41.744Z,264.38
2018-06-16T12:32:41.748Z,298.13
2018-06-16T12:33:41.753Z,376.88
2018-06-16T12:34:41.752Z,478.13